This is the latest recevied weather packets stored in our database for station/object KA6UPU-1. If no packets are shown the sender has not sent any weather packets the latest 10 day(s).
| Time | Temp. | Humidity | Pressure | Rain* | Wind** | Luminosity | Snow |
|---|---|---|---|---|---|---|---|
| 1788299632 | 22.22° C | 49% | 1015.5 hPa | 0 mm | - | - | - |
| 1788299332 | 22.22° C | 50% | 1015.6 hPa | 0 mm | - | - | - |
| 1788299032 | 21.67° C | 51% | 1015.5 hPa | 0 mm | - | - | - |
| 1788298732 | 21.11° C | 52% | 1015.6 hPa | 0 mm | - | - | - |
| 1788298432 | 21.67° C | 51% | 1015.6 hPa | 0 mm | - | - | - |
| 1788298132 | 21.67° C | 52% | 1015.6 hPa | 0 mm | - | - | - |
| 1788297832 | 21.67° C | 52% | 1015.5 hPa | 0 mm | - | - | - |
| 1788297532 | 22.22° C | 52% | 1015.5 hPa | 0 mm | - | - | - |
| 1788297232 | 22.22° C | 52% | 1015.5 hPa | 0 mm | - | - | - |
| 1788296932 | 22.22° C | 53% | 1015.5 hPa | 0 mm | - | - | - |
| 1788296632 | 22.22° C | 54% | 1015.6 hPa | 0 mm | - | - | - |
| 1788296032 | 21.67° C | 55% | 1015.5 hPa | 0 mm | - | - | - |
| 1788295732 | 21.67° C | 52% | 1015.6 hPa | 0 mm | - | - | - |
| 1788295432 | 22.22° C | 51% | 1015.5 hPa | 0 mm | - | - | - |
| 1788295132 | 22.22° C | 51% | 1015.5 hPa | 0 mm | - | - | - |
| 1788294532 | 23.33° C | 48% | 1015.5 hPa | 0 mm | - | - | - |
| 1788294232 | 23.89° C | 46% | 1015.5 hPa | 0 mm | - | - | - |
| 1788293932 | 23.89° C | 47% | 1015.5 hPa | 0 mm | - | - | - |
| 1788293632 | 23.89° C | 47% | 1015.5 hPa | 0 mm | - | - | - |
| 1788293332 | 23.33° C | 48% | 1015.6 hPa | 0 mm | - | - | - |
| 1788293032 | 22.78° C | 50% | 1015.7 hPa | 0 mm | - | - | - |
| 1788292732 | 22.78° C | 49% | 1015.8 hPa | 0 mm | - | - | - |
| 1788292432 | 22.78° C | 49% | 1015.9 hPa | 0 mm | - | - | - |
| 1788292132 | 22.78° C | 49% | 1015.8 hPa | 0 mm | - | - | - |
| 1788291832 | 22.78° C | 48% | 1015.8 hPa | 0 mm | - | - | - |
* Rain latest hour (hover to see other rain measurements)
** Current wind speed in m/s (hover to see current wind gust speed)